St Aqua — A8ZG3 — position and weather

sailwx.info

Track history (hours):
 
Tides and Currents Weather Stations Pressure Air Temp Water Temp Dewpoint Dewpoint Depression Visibility Wind Speed Wind Dir Waves Ship Positions

St Aqua

Last reported at 2018-Jun-17 23:23 UTC. Time now 2018-Jun-18 01:31 UTC.
Position N 36°57' W 001°21'.

Length 155 m; draft 6.4 m.

Type: Ship. MMSI: 636015203.

Date/timePositionNaut miles runAvg speedWind from/ knotsBaromVisibWave heightAir tempDewpointWater temp
2018-Jun-17 23:23N 36°57' W 001°21'1 0.2
2018-Jun-17 18:47N 36°57' W 001°22'8 0.7
2018-Jun-17 07:05N 37°05' W 001°19'0 1.1
2018-Jun-17 06:53N 37°05' W 001°19'2 1.0
2018-Jun-17 04:53N 37°07' W 001°18'0 1.0
2018-Jun-17 04:29N 37°08' W 001°18'1 0.8
2018-Jun-17 03:17N 37°09' W 001°18'0 0.7
2018-Jun-17 02:47N 37°09' W 001°18'0 0.7
2018-Jun-17 02:23N 37°09' W 001°18'0 0.6
2018-Jun-17 01:59N 37°10' W 001°18'2 0.5
2018-Jun-16 23:05N 37°11' W 001°17'0 0.2
2018-Jun-16 22:59N 37°11' W 001°17'0 0.4
2018-Jun-16 22:29N 37°11' W 001°17'1 2.3
2018-Jun-16 22:00N 37°12' W 001°18'611.9
2018-Jun-16 21:30N 37°12' W 001°26'3 0.5
2018-Jun-16 15:36N 37°11' W 001°30'0 0.9
2018-Jun-16 15:06N 37°11' W 001°29'7 0.5
2018-Jun-15 23:48N 37°11' W 001°20'0 0.1
2018-Jun-15 23:18N 37°11' W 001°20'0 0.2
2018-Jun-15 23:00N 37°11' W 001°20'0 0.1
2018-Jun-15 19:06N 37°11' W 001°20'0 0.1
2018-Jun-15 19:00N 37°11' W 001°20'0 0.2
2018-Jun-15 18:24N 37°11' W 001°19'0 0.3
2018-Jun-15 17:42N 37°10' W 001°19'0 0.3
2018-Jun-15 17:12N 37°10' W 001°19'0 0.3
2018-Jun-15 17:00N 37°10' W 001°19'0 0.3
2018-Jun-15 16:30N 37°10' W 001°19'0 0.3
2018-Jun-15 16:00N 37°10' W 001°19'3 0.4
2018-Jun-15 06:57N 37°07' W 001°18'0 0.2
2018-Jun-15 04:16N 37°07' W 001°18'8 0.7
2018-Jun-14 15:37N 37°14' W 001°22'11 0.5
2018-Jun-13 19:18N 37°16' W 001°09'513.7
2018-Jun-13 18:57N 37°19' W 001°05'4 9.9
2018-Jun-13 18:30N 37°23' W 001°02'0 0.5
2018-Jun-13 18:00N 37°23' W 001°02'1 0.6
2018-Jun-13 15:42N 37°22' W 001°03'0 0.7
2018-Jun-13 15:29N 37°22' W 001°03'0 0.7
2018-Jun-13 14:59N 37°22' W 001°04'5 0.7
2018-Jun-13 08:05N 37°17' W 001°05'0 0.5
2018-Jun-13 07:54N 37°16' W 001°05'0 0.6
2018-Jun-13 07:24N 37°16' W 001°05'0 0.6
2018-Jun-13 06:53N 37°16' W 001°05'0 0.8
2018-Jun-13 06:29N 37°16' W 001°05'3 0.8
2018-Jun-13 03:12N 37°13' W 001°06'1 0.9
2018-Jun-13 02:35N 37°13' W 001°06'0 0.8
2018-Jun-13 02:29N 37°12' W 001°06'7 1.1
2018-Jun-12 20:00N 37°06' W 001°09'3 1.7
2018-Jun-12 18:17N 37°03' W 001°10'1 1.8
2018-Jun-12 17:53N 37°02' W 001°10'2 1.8
2018-Jun-12 16:42N 37°00' W 001°11'  
Track history (hours):
 
Tides and Currents Weather Stations Pressure Air Temp Water Temp Dewpoint Dewpoint Depression Visibility Wind Speed Wind Dir Waves Ship Positions

St Aqua

Last reported at 2018-Jun-17 23:23 UTC. Time now 2018-Jun-18 01:31 UTC.
Position N 36°57' W 001°21'.

Length 155 m; draft 6.4 m.

Type: Ship. MMSI: 636015203.

Date/timePositionNaut miles runAvg speedWind from/ knotsBaromVisibWave heightAir tempDewpointWater temp
2018-Jun-17 23:23N 36°57' W 001°21'1 0.2
2018-Jun-17 18:47N 36°57' W 001°22'8 0.7
2018-Jun-17 07:05N 37°05' W 001°19'0 1.1
2018-Jun-17 06:53N 37°05' W 001°19'2 1.0
2018-Jun-17 04:53N 37°07' W 001°18'0 1.0
2018-Jun-17 04:29N 37°08' W 001°18'1 0.8
2018-Jun-17 03:17N 37°09' W 001°18'0 0.7
2018-Jun-17 02:47N 37°09' W 001°18'0 0.7
2018-Jun-17 02:23N 37°09' W 001°18'0 0.6
2018-Jun-17 01:59N 37°10' W 001°18'2 0.5
2018-Jun-16 23:05N 37°11' W 001°17'0 0.2
2018-Jun-16 22:59N 37°11' W 001°17'0 0.4
2018-Jun-16 22:29N 37°11' W 001°17'1 2.3
2018-Jun-16 22:00N 37°12' W 001°18'611.9
2018-Jun-16 21:30N 37°12' W 001°26'3 0.5
2018-Jun-16 15:36N 37°11' W 001°30'0 0.9
2018-Jun-16 15:06N 37°11' W 001°29'7 0.5
2018-Jun-15 23:48N 37°11' W 001°20'0 0.1
2018-Jun-15 23:18N 37°11' W 001°20'0 0.2
2018-Jun-15 23:00N 37°11' W 001°20'0 0.1
2018-Jun-15 19:06N 37°11' W 001°20'0 0.1
2018-Jun-15 19:00N 37°11' W 001°20'0 0.2
2018-Jun-15 18:24N 37°11' W 001°19'0 0.3
2018-Jun-15 17:42N 37°10' W 001°19'0 0.3
2018-Jun-15 17:12N 37°10' W 001°19'0 0.3
2018-Jun-15 17:00N 37°10' W 001°19'0 0.3
2018-Jun-15 16:30N 37°10' W 001°19'0 0.3
2018-Jun-15 16:00N 37°10' W 001°19'3 0.4
2018-Jun-15 06:57N 37°07' W 001°18'0 0.2
2018-Jun-15 04:16N 37°07' W 001°18'8 0.7
2018-Jun-14 15:37N 37°14' W 001°22'11 0.5
2018-Jun-13 19:18N 37°16' W 001°09'513.7
2018-Jun-13 18:57N 37°19' W 001°05'4 9.9
2018-Jun-13 18:30N 37°23' W 001°02'0 0.5
2018-Jun-13 18:00N 37°23' W 001°02'1 0.6
2018-Jun-13 15:42N 37°22' W 001°03'0 0.7
2018-Jun-13 15:29N 37°22' W 001°03'0 0.7
2018-Jun-13 14:59N 37°22' W 001°04'5 0.7
2018-Jun-13 08:05N 37°17' W 001°05'0 0.5
2018-Jun-13 07:54N 37°16' W 001°05'0 0.6
2018-Jun-13 07:24N 37°16' W 001°05'0 0.6
2018-Jun-13 06:53N 37°16' W 001°05'0 0.8
2018-Jun-13 06:29N 37°16' W 001°05'3 0.8
2018-Jun-13 03:12N 37°13' W 001°06'1 0.9
2018-Jun-13 02:35N 37°13' W 001°06'0 0.8
2018-Jun-13 02:29N 37°12' W 001°06'7 1.1
2018-Jun-12 20:00N 37°06' W 001°09'3 1.7
2018-Jun-12 18:17N 37°03' W 001°10'1 1.8
2018-Jun-12 17:53N 37°02' W 001°10'2 1.8
2018-Jun-12 16:42N 37°00' W 001°11'  

Dump ship's entire track history